createdAt,value
2022-12-03T00:00:12.755Z,101796.73
2022-12-03T00:03:01.521Z,101794.58
2022-12-03T00:05:29.591Z,101789.45
2022-12-03T00:07:57.494Z,101788.85
2022-12-03T00:10:25.497Z,101790.30
2022-12-03T00:12:53.359Z,101790.59
2022-12-03T00:15:21.236Z,101792.85
2022-12-03T00:17:49.203Z,101786.92
2022-12-03T00:20:24.419Z,101782.56
2022-12-03T00:22:52.494Z,101785.45
2022-12-03T00:25:20.424Z,101787.95
2022-12-03T00:27:48.266Z,101784.11
2022-12-03T00:30:16.353Z,101785.52
2022-12-03T00:32:44.259Z,101781.48
2022-12-03T00:35:12.171Z,101784.33
2022-12-03T00:37:40.049Z,101780.45
2022-12-03T00:40:08.894Z,101780.72
2022-12-03T00:42:36.767Z,101778.10
2022-12-03T00:45:05.668Z,101777.46
2022-12-03T00:47:33.604Z,101771.36
2022-12-03T00:50:01.553Z,101775.55
2022-12-03T00:52:29.418Z,101774.33
2022-12-03T00:54:57.329Z,101775.13
2022-12-03T00:57:25.203Z,101777.02
2022-12-03T00:59:53.041Z,101777.93
2022-12-03T01:02:21.114Z,101781.08
2022-12-03T01:04:49.065Z,101778.33
2022-12-03T01:07:17.008Z,101781.79
2022-12-03T01:09:44.839Z,101782.67
2022-12-03T01:12:12.746Z,101782.34
2022-12-03T01:14:40.620Z,101781.19
2022-12-03T01:17:08.485Z,101776.83
2022-12-03T01:19:36.564Z,101778.91
2022-12-03T01:22:04.961Z,101776.50
2022-12-03T01:24:33.267Z,101778.76
2022-12-03T01:27:01.197Z,101778.37
2022-12-03T01:29:29.047Z,101775.58
2022-12-03T01:32:15.703Z,101777.19
2022-12-03T01:34:45.595Z,101774.48
2022-12-03T01:37:14.628Z,101776.63
2022-12-03T01:39:42.785Z,101777.00
2022-12-03T01:42:19.011Z,101779.27
2022-12-03T01:44:48.699Z,101777.52
2022-12-03T01:47:19.938Z,101778.17
2022-12-03T01:50:12.756Z,101775.04
2022-12-03T01:52:40.773Z,101769.58
2022-12-03T01:55:17.118Z,101765.79
2022-12-03T01:57:50.370Z,101765.45
2022-12-03T02:00:23.011Z,101760.71
2022-12-03T02:02:57.560Z,101756.08
2022-12-03T02:05:31.596Z,101758.48
2022-12-03T02:08:00.913Z,101756.13
2022-12-03T02:10:36.007Z,101756.60
2022-12-03T02:13:10.356Z,101752.90
2022-12-03T02:15:40.009Z,101752.95
2022-12-03T02:18:08.909Z,101749.47
2022-12-03T02:21:03.297Z,101749.55
2022-12-03T02:24:01.162Z,101747.19
2022-12-03T02:26:29.893Z,101746.36
2022-12-03T02:28:57.845Z,101741.39
2022-12-03T02:31:25.864Z,101742.04
2022-12-03T02:33:53.883Z,101743.10
2022-12-03T02:36:21.812Z,101743.20
2022-12-03T02:38:51.242Z,101745.92
2022-12-03T02:41:40.140Z,101747.48
2022-12-03T02:44:08.902Z,101749.67
2022-12-03T02:46:36.928Z,101747.27
2022-12-03T02:49:06.319Z,101747.62
2022-12-03T02:51:34.833Z,101749.95
2022-12-03T02:54:03.818Z,101749.23
2022-12-03T02:56:32.933Z,101750.45
2022-12-03T02:59:04.617Z,101752.27
2022-12-03T03:01:32.637Z,101750.54
2022-12-03T03:04:02.527Z,101749.21
2022-12-03T03:06:30.772Z,101747.48
2022-12-03T03:08:58.870Z,101748.58
2022-12-03T03:11:27.079Z,101749.14
2022-12-03T03:13:55.392Z,101753.16
2022-12-03T03:16:23.330Z,101748.98
2022-12-03T03:18:51.266Z,101750.05
2022-12-03T03:21:19.334Z,101751.44
2022-12-03T03:23:47.300Z,101746.88
2022-12-03T03:26:16.537Z,101741.17
2022-12-03T03:28:49.941Z,101744.69
2022-12-03T03:31:23.033Z,101739.81
2022-12-03T03:33:51.669Z,101739.23
2022-12-03T03:36:20.300Z,101741.67
2022-12-03T03:38:48.815Z,101737.38
2022-12-03T03:41:17.550Z,101737.27
2022-12-03T03:43:47.636Z,101734.95
2022-12-03T03:46:17.235Z,101734.24
2022-12-03T03:48:45.672Z,101732.92
2022-12-03T03:51:16.431Z,101734.33
2022-12-03T03:53:49.715Z,101731.57
2022-12-03T03:56:20.162Z,101730.55
2022-12-03T03:58:48.040Z,101735.08
2022-12-03T04:01:17.787Z,101734.81
2022-12-03T04:03:46.417Z,101729.35
2022-12-03T04:06:14.308Z,101729.20
2022-12-03T04:08:42.190Z,101728.05
2022-12-03T04:11:28.877Z,101725.78
2022-12-03T04:13:56.746Z,101725.80
2022-12-03T04:16:24.761Z,101723.81
2022-12-03T04:18:52.846Z,101719.23
2022-12-03T04:21:42.389Z,101718.23
2022-12-03T04:24:11.815Z,101717.78
2022-12-03T04:26:58.436Z,101722.23
2022-12-03T04:29:26.356Z,101719.45
2022-12-03T04:32:12.857Z,101715.23
2022-12-03T04:34:59.643Z,101713.28
2022-12-03T04:37:27.720Z,101711.33
2022-12-03T04:39:55.555Z,101714.90
2022-12-03T04:42:23.408Z,101716.92
2022-12-03T04:44:51.424Z,101716.35
2022-12-03T04:47:22.138Z,101714.09
2022-12-03T04:49:51.835Z,101714.96
2022-12-03T04:52:21.027Z,101714.11
2022-12-03T04:54:49.000Z,101710.73
2022-12-03T04:57:17.387Z,101709.98
2022-12-03T04:59:45.278Z,101706.49
2022-12-03T05:02:13.197Z,101701.45
2022-12-03T05:04:41.937Z,101703.94
2022-12-03T05:07:11.540Z,101698.98
2022-12-03T05:09:39.387Z,101697.65
2022-12-03T05:12:07.345Z,101697.38
2022-12-03T05:14:36.479Z,101695.62
2022-12-03T05:17:04.396Z,101694.70
2022-12-03T05:19:50.883Z,101690.20
2022-12-03T05:22:18.743Z,101693.20
2022-12-03T05:24:46.569Z,101688.39
2022-12-03T05:27:15.812Z,101689.98
2022-12-03T05:29:46.708Z,101691.59
2022-12-03T05:32:14.992Z,101684.48
2022-12-03T05:34:42.897Z,101689.41
2022-12-03T05:37:11.051Z,101688.06
2022-12-03T05:39:38.976Z,101686.30
2022-12-03T05:42:27.122Z,101685.88
2022-12-03T05:44:55.269Z,101688.77
2022-12-03T05:47:23.448Z,101685.58
2022-12-03T05:49:51.516Z,101681.41
2022-12-03T05:52:19.374Z,101674.98
2022-12-03T05:54:47.280Z,101677.56
2022-12-03T05:57:15.159Z,101673.94
2022-12-03T05:59:43.032Z,101667.19
2022-12-03T06:02:11.009Z,101666.90
2022-12-03T06:04:38.851Z,101672.31
2022-12-03T06:07:12.374Z,101670.08
2022-12-03T06:09:41.814Z,101672.70
2022-12-03T06:12:09.771Z,101673.73
2022-12-03T06:14:37.628Z,101678.58
2022-12-03T06:17:05.465Z,101681.30
2022-12-03T06:19:34.032Z,101673.98
2022-12-03T06:22:01.922Z,101674.30
2022-12-03T06:24:29.872Z,101677.38
2022-12-03T06:26:57.796Z,101679.67
2022-12-03T06:29:25.651Z,101685.21
2022-12-03T06:31:53.553Z,101687.29
2022-12-03T06:34:21.561Z,101688.67
2022-12-03T06:36:50.195Z,101689.00
2022-12-03T06:39:18.738Z,101688.77
2022-12-03T06:41:46.625Z,101684.77
2022-12-03T06:44:14.882Z,101683.70
2022-12-03T06:46:42.876Z,101686.55
2022-12-03T06:49:11.000Z,101677.65
2022-12-03T06:51:39.075Z,101682.56
2022-12-03T06:54:07.048Z,101682.83
2022-12-03T06:56:41.805Z,101679.38
2022-12-03T06:59:13.654Z,101678.01
2022-12-03T07:01:41.620Z,101683.67
2022-12-03T07:04:09.979Z,101680.01
2022-12-03T07:06:37.908Z,101679.46
2022-12-03T07:09:05.874Z,101678.75
2022-12-03T07:11:39.932Z,101675.23
2022-12-03T07:14:11.798Z,101672.47
2022-12-03T07:16:43.022Z,101668.27
2022-12-03T07:19:11.795Z,101666.73
2022-12-03T07:21:39.898Z,101662.70
2022-12-03T07:24:08.875Z,101668.90
2022-12-03T07:26:36.892Z,101662.66
2022-12-03T07:29:04.909Z,101659.52
2022-12-03T07:31:32.850Z,101662.63
2022-12-03T07:34:02.150Z,101665.55
2022-12-03T07:36:30.202Z,101668.31
2022-12-03T07:38:58.081Z,101668.13
2022-12-03T07:41:26.062Z,101669.17
2022-12-03T07:43:54.144Z,101664.84
2022-12-03T07:46:22.256Z,101668.64
2022-12-03T07:48:50.162Z,101664.76
2022-12-03T07:51:18.173Z,101668.65
2022-12-03T07:53:46.021Z,101668.30
2022-12-03T07:56:13.924Z,101665.16
2022-12-03T07:58:41.762Z,101670.77
2022-12-03T08:01:10.417Z,101670.60
2022-12-03T08:03:38.650Z,101664.42
2022-12-03T08:06:06.952Z,101657.86
2022-12-03T08:08:34.865Z,101658.52
2022-12-03T08:11:03.350Z,101658.79
2022-12-03T08:13:34.264Z,101656.42
2022-12-03T08:16:21.746Z,101652.30
2022-12-03T08:18:51.346Z,101654.55
2022-12-03T08:21:21.496Z,101651.84
2022-12-03T08:23:49.381Z,101653.59
2022-12-03T08:26:27.951Z,101650.95
2022-12-03T08:28:55.780Z,101653.61
2022-12-03T08:31:32.949Z,101653.77
2022-12-03T08:34:21.608Z,101655.77
2022-12-03T08:36:56.669Z,101654.34
2022-12-03T08:39:35.705Z,101658.70
2022-12-03T08:42:41.504Z,101656.17
2022-12-03T08:45:31.893Z,101659.21
2022-12-03T08:48:05.881Z,101657.64
2022-12-03T08:50:40.144Z,101660.29
2022-12-03T08:53:13.992Z,101665.71
2022-12-03T08:55:53.327Z,101657.36
2022-12-03T08:58:31.609Z,101661.35
2022-12-03T09:01:30.587Z,101657.84
2022-12-03T09:04:43.829Z,101657.00
2022-12-03T09:07:11.751Z,101651.14
2022-12-03T09:09:40.171Z,101653.35
2022-12-03T09:12:08.083Z,101645.59
2022-12-03T09:14:35.955Z,101649.29
2022-12-03T09:17:03.894Z,101646.60
2022-12-03T09:19:31.952Z,101639.13
2022-12-03T09:21:59.951Z,101641.13
2022-12-03T09:24:27.855Z,101641.60
2022-12-03T09:26:55.670Z,101637.88
2022-12-03T09:29:23.837Z,101631.65
2022-12-03T09:31:51.760Z,101631.97
2022-12-03T09:34:19.843Z,101631.79
2022-12-03T09:36:47.713Z,101633.84
2022-12-03T09:39:15.740Z,101629.75
2022-12-03T09:41:44.007Z,101631.71
2022-12-03T09:44:17.615Z,101623.34
2022-12-03T09:46:47.801Z,101622.34
2022-12-03T09:49:19.088Z,101623.29
2022-12-03T09:51:47.316Z,101622.48
2022-12-03T09:54:24.296Z,101623.08
2022-12-03T09:56:55.094Z,101622.90
2022-12-03T09:59:27.450Z,101618.77
2022-12-03T10:01:55.844Z,101613.38
2022-12-03T10:04:24.794Z,101609.94
2022-12-03T10:06:52.847Z,101605.44
2022-12-03T10:09:27.272Z,101605.69
2022-12-03T10:11:59.920Z,101602.32
2022-12-03T10:14:28.545Z,101600.98
2022-12-03T10:16:58.445Z,101599.16
2022-12-03T10:19:31.651Z,101597.51
2022-12-03T10:21:59.641Z,101596.77
2022-12-03T10:24:32.936Z,101590.16
2022-12-03T10:27:04.766Z,101588.42
2022-12-03T10:29:35.790Z,101582.46
2022-12-03T10:32:12.756Z,101579.59
2022-12-03T10:34:42.628Z,101581.51
2022-12-03T10:37:21.072Z,101588.42
2022-12-03T10:40:00.044Z,101589.86
2022-12-03T10:42:32.369Z,101590.98
2022-12-03T10:45:22.928Z,101590.73
2022-12-03T10:48:15.209Z,101588.08
2022-12-03T10:51:03.329Z,101589.04
2022-12-03T10:53:38.473Z,101585.08
2022-12-03T10:56:13.643Z,101583.42
2022-12-03T10:58:41.898Z,101576.19
2022-12-03T11:01:23.040Z,101574.74
2022-12-03T11:03:52.386Z,101573.83
2022-12-03T11:06:23.120Z,101570.70
2022-12-03T11:08:58.498Z,101572.17
2022-12-03T11:11:30.587Z,101568.30
2022-12-03T11:14:04.165Z,101565.56
2022-12-03T11:16:41.275Z,101565.31
2022-12-03T11:19:40.148Z,101561.67
2022-12-03T11:22:10.761Z,101562.73
2022-12-03T11:24:40.442Z,101561.65
2022-12-03T11:27:11.081Z,101561.12
2022-12-03T11:30:01.097Z,101556.45
2022-12-03T11:32:38.259Z,101553.44
2022-12-03T11:35:27.749Z,101558.46
2022-12-03T11:38:34.540Z,101554.45
2022-12-03T11:41:30.726Z,101552.79
2022-12-03T11:44:25.152Z,101549.34
2022-12-03T11:46:54.116Z,101541.02
2022-12-03T11:49:37.679Z,101539.84
2022-12-03T11:52:22.213Z,101540.94
2022-12-03T11:54:56.357Z,101539.48
2022-12-03T11:57:38.455Z,101540.14
2022-12-03T12:00:15.106Z,101537.79
2022-12-03T12:02:43.464Z,101535.96
2022-12-03T12:05:22.479Z,101537.41
2022-12-03T12:07:51.744Z,101537.57
2022-12-03T12:10:47.937Z,101536.44
2022-12-03T12:13:31.406Z,101534.44
2022-12-03T12:16:05.864Z,101538.48
2022-12-03T12:18:52.422Z,101533.09
2022-12-03T12:21:50.017Z,101534.11
2022-12-03T12:24:45.708Z,101532.09
2022-12-03T12:27:23.210Z,101532.94
2022-12-03T12:29:58.664Z,101531.27
2022-12-03T12:33:12.889Z,101525.53
2022-12-03T12:35:41.347Z,101528.58
2022-12-03T12:38:14.918Z,101529.47
2022-12-03T12:40:49.126Z,101524.82
2022-12-03T12:43:25.316Z,101531.50
2022-12-03T12:45:56.568Z,101534.23
2022-12-03T12:48:33.692Z,101543.40
2022-12-03T12:51:12.112Z,101532.09
2022-12-03T12:53:42.825Z,101527.99
2022-12-03T12:56:30.219Z,101524.02
2022-12-03T12:59:10.854Z,101522.63
2022-12-03T13:01:41.210Z,101513.30
2022-12-03T13:04:16.573Z,101513.21
2022-12-03T13:06:47.876Z,101510.51
2022-12-03T13:09:20.433Z,101507.15
2022-12-03T13:12:03.797Z,101498.66
2022-12-03T13:14:36.967Z,101514.43
2022-12-03T13:17:15.969Z,101519.87
2022-12-03T13:19:49.426Z,101517.80
2022-12-03T13:22:29.247Z,101520.27
2022-12-03T13:24:58.571Z,101517.99
2022-12-03T13:27:29.954Z,101511.13
2022-12-03T13:30:19.724Z,101515.91
2022-12-03T13:32:47.572Z,101511.35
2022-12-03T13:35:35.825Z,101514.77
2022-12-03T13:38:13.634Z,101517.70
2022-12-03T13:40:42.036Z,101514.43
2022-12-03T13:43:18.563Z,101511.58
2022-12-03T13:45:50.286Z,101497.86
2022-12-03T13:48:24.152Z,101502.04
2022-12-03T13:50:54.283Z,101507.59
2022-12-03T13:53:36.738Z,101505.91
2022-12-03T13:56:33.954Z,101506.06
2022-12-03T13:59:04.019Z,101507.44
2022-12-03T14:01:32.277Z,101504.59
2022-12-03T14:04:00.300Z,101503.17
2022-12-03T14:06:28.351Z,101495.09
2022-12-03T14:08:56.473Z,101502.16
2022-12-03T14:11:43.299Z,101500.01
2022-12-03T14:14:11.201Z,101504.77
2022-12-03T14:16:39.145Z,101508.94
2022-12-03T14:19:07.480Z,101511.33
2022-12-03T14:21:35.369Z,101501.70
2022-12-03T14:24:03.422Z,101493.86
2022-12-03T14:26:31.360Z,101496.64
2022-12-03T14:28:59.255Z,101493.01
2022-12-03T14:31:27.189Z,101485.54
2022-12-03T14:33:55.140Z,101485.08
2022-12-03T14:36:23.056Z,101484.23
2022-12-03T14:38:51.221Z,101485.88
2022-12-03T14:41:39.366Z,101486.85
2022-12-03T14:44:07.323Z,101486.44
2022-12-03T14:46:35.230Z,101485.11
2022-12-03T14:49:03.268Z,101483.41
2022-12-03T14:51:31.151Z,101487.42
2022-12-03T14:53:59.147Z,101492.16
2022-12-03T14:56:27.004Z,101499.06
2022-12-03T14:58:54.916Z,101499.73
2022-12-03T15:01:22.874Z,101499.89
2022-12-03T15:03:50.860Z,101499.85
2022-12-03T15:06:18.789Z,101500.49
2022-12-03T15:08:47.284Z,101500.82
2022-12-03T15:11:15.147Z,101499.56
2022-12-03T15:13:42.998Z,101494.90
2022-12-03T15:16:10.979Z,101500.73
2022-12-03T15:18:38.880Z,101491.13
2022-12-03T15:21:08.031Z,101487.02
2022-12-03T15:23:37.002Z,101498.09
2022-12-03T15:26:05.160Z,101501.64
2022-12-03T15:28:33.176Z,101497.84
2022-12-03T15:31:01.623Z,101503.20
2022-12-03T15:33:29.547Z,101499.84
2022-12-03T15:35:57.513Z,101506.45
2022-12-03T15:38:25.413Z,101504.28
2022-12-03T15:40:53.331Z,101506.92
2022-12-03T15:43:21.368Z,101509.89
2022-12-03T15:45:49.298Z,101504.58
2022-12-03T15:48:17.221Z,101496.34
2022-12-03T15:50:45.097Z,101494.77
2022-12-03T15:53:13.022Z,101494.36
2022-12-03T15:55:41.067Z,101489.50
2022-12-03T15:58:08.994Z,101488.59
2022-12-03T16:00:36.905Z,101485.71
2022-12-03T16:03:04.960Z,101484.57
2022-12-03T16:05:32.845Z,101482.95
2022-12-03T16:08:00.968Z,101482.90
2022-12-03T16:10:29.083Z,101489.05
2022-12-03T16:12:57.010Z,101493.66
2022-12-03T16:15:27.292Z,101495.23
2022-12-03T16:17:55.574Z,101491.20
2022-12-03T16:20:23.789Z,101495.23
2022-12-03T16:22:52.097Z,101497.21
2022-12-03T16:25:19.941Z,101493.83
2022-12-03T16:27:47.882Z,101496.42
2022-12-03T16:30:15.998Z,101496.75
2022-12-03T16:32:43.856Z,101500.48
2022-12-03T16:35:11.705Z,101499.13
2022-12-03T16:37:39.561Z,101499.51
2022-12-03T16:40:08.789Z,101498.27
2022-12-03T16:42:37.239Z,101490.45
2022-12-03T16:45:09.773Z,101495.30
2022-12-03T16:47:37.847Z,101496.83
2022-12-03T16:50:09.857Z,101495.05
2022-12-03T16:52:40.837Z,101501.03
2022-12-03T16:55:09.526Z,101502.45
2022-12-03T16:57:37.975Z,101498.04
2022-12-03T17:00:07.539Z,101500.36
2022-12-03T17:02:35.539Z,101501.77
2022-12-03T17:05:03.746Z,101502.54
2022-12-03T17:07:31.691Z,101501.74
2022-12-03T17:09:59.555Z,101497.45
2022-12-03T17:12:37.454Z,101498.58
2022-12-03T17:15:15.362Z,101493.11
2022-12-03T17:17:43.233Z,101490.99
2022-12-03T17:20:13.215Z,101489.34
2022-12-03T17:22:41.641Z,101485.02
2022-12-03T17:25:10.745Z,101481.10
2022-12-03T17:27:44.805Z,101483.27
2022-12-03T17:30:14.022Z,101482.02
2022-12-03T17:32:41.879Z,101482.50
2022-12-03T17:35:11.266Z,101480.52
2022-12-03T17:37:40.885Z,101477.56
2022-12-03T17:40:12.643Z,101482.25
2022-12-03T17:42:40.655Z,101483.59
2022-12-03T17:45:09.206Z,101487.22
2022-12-03T17:47:37.088Z,101486.67
2022-12-03T17:50:06.999Z,101491.48
2022-12-03T17:52:34.948Z,101493.42
2022-12-03T17:55:14.227Z,101489.25
2022-12-03T17:57:46.068Z,101483.02
2022-12-03T18:00:14.431Z,101485.52
2022-12-03T18:02:45.800Z,101488.15
2022-12-03T18:05:14.152Z,101485.59
2022-12-03T18:07:42.164Z,101489.14
2022-12-03T18:10:10.245Z,101478.29
2022-12-03T18:12:38.221Z,101484.02
2022-12-03T18:15:07.223Z,101479.81
2022-12-03T18:17:35.434Z,101477.75
2022-12-03T18:20:04.222Z,101476.62
2022-12-03T18:22:32.072Z,101476.92
2022-12-03T18:25:00.557Z,101472.69
2022-12-03T18:27:28.376Z,101470.39
2022-12-03T18:29:56.612Z,101470.89
2022-12-03T18:32:29.729Z,101472.98
2022-12-03T18:34:58.349Z,101471.09
2022-12-03T18:37:28.732Z,101466.58
2022-12-03T18:39:58.097Z,101466.11
2022-12-03T18:42:26.529Z,101461.58
2022-12-03T18:44:56.816Z,101462.08
2022-12-03T18:47:28.699Z,101461.96
2022-12-03T18:49:57.775Z,101454.63
2022-12-03T18:52:26.143Z,101467.36
2022-12-03T18:54:55.316Z,101469.98
2022-12-03T18:57:23.448Z,101467.77
2022-12-03T18:59:51.574Z,101475.34
2022-12-03T19:05:10.145Z,101469.20
2022-12-03T19:07:38.261Z,101466.41
2022-12-03T19:10:07.708Z,101472.02
2022-12-03T19:12:36.275Z,101470.24
2022-12-03T19:15:06.135Z,101473.46
2022-12-03T19:17:33.987Z,101471.92
2022-12-03T19:20:01.848Z,101474.54
2022-12-03T19:22:29.822Z,101477.44
2022-12-03T19:24:57.711Z,101477.06
2022-12-03T19:27:25.607Z,101477.86
2022-12-03T19:29:53.904Z,101481.33
2022-12-03T19:32:22.250Z,101483.42
2022-12-03T19:34:50.556Z,101478.48
2022-12-03T19:37:18.409Z,101478.13
2022-12-03T19:39:46.500Z,101476.86
2022-12-03T19:42:14.500Z,101478.98
2022-12-03T19:44:42.402Z,101482.92
2022-12-03T19:47:10.469Z,101478.41
2022-12-03T19:49:38.342Z,101478.96
2022-12-03T19:52:06.220Z,101470.60
2022-12-03T19:54:34.058Z,101479.48
2022-12-03T19:57:01.901Z,101478.15
2022-12-03T19:59:29.751Z,101477.92
2022-12-03T20:01:57.744Z,101482.55
2022-12-03T20:04:25.853Z,101481.16
2022-12-03T20:06:53.717Z,101480.91
2022-12-03T20:09:22.501Z,101476.23
2022-12-03T20:11:51.255Z,101477.79
2022-12-03T20:14:19.841Z,101482.85
2022-12-03T20:16:47.835Z,101480.38
2022-12-03T20:19:17.904Z,101480.73
2022-12-03T20:21:45.945Z,101479.31
2022-12-03T20:24:17.183Z,101484.89
2022-12-03T20:26:45.316Z,101482.20
2022-12-03T20:29:13.343Z,101480.47
2022-12-03T20:31:41.402Z,101479.06
2022-12-03T20:34:10.945Z,101479.36
2022-12-03T20:36:39.880Z,101472.63
2022-12-03T20:39:08.462Z,101474.84
2022-12-03T20:41:37.370Z,101470.02
2022-12-03T20:44:07.656Z,101464.67
2022-12-03T20:46:36.416Z,101461.63
2022-12-03T20:49:04.803Z,101460.24
2022-12-03T20:51:32.901Z,101438.42
2022-12-03T20:54:02.430Z,101457.88
2022-12-03T20:56:34.916Z,101453.89
2022-12-03T20:59:06.354Z,101451.48
2022-12-03T21:01:36.027Z,101449.40
2022-12-03T21:04:05.080Z,101446.05
2022-12-03T21:06:35.891Z,101447.50
2022-12-03T21:09:06.708Z,101451.15
2022-12-03T21:11:36.033Z,101458.02
2022-12-03T21:14:05.044Z,101456.95
2022-12-03T21:17:07.158Z,101461.10
2022-12-03T21:19:27.318Z,101459.25
2022-12-03T21:21:55.271Z,101458.39
2022-12-03T21:24:23.198Z,101455.87
2022-12-03T21:26:51.290Z,101452.16
2022-12-03T21:29:19.341Z,101452.06
2022-12-03T21:31:47.177Z,101452.48
2022-12-03T21:34:15.156Z,101454.20
2022-12-03T21:36:43.112Z,101451.73
2022-12-03T21:39:11.122Z,101451.33
2022-12-03T21:41:39.078Z,101453.54
2022-12-03T21:44:06.994Z,101449.72
2022-12-03T21:47:09.509Z,101446.29
2022-12-03T21:49:23.467Z,101443.60
2022-12-03T21:51:51.477Z,101437.50
2022-12-03T21:54:20.375Z,101438.21
2022-12-03T21:56:48.220Z,101435.71
2022-12-03T21:59:16.502Z,101433.83
2022-12-03T22:01:47.400Z,101430.98
2022-12-03T22:04:15.719Z,101428.95
2022-12-03T22:06:43.694Z,101431.67
2022-12-03T22:09:11.689Z,101427.11
2022-12-03T22:11:39.665Z,101429.89
2022-12-03T22:14:08.445Z,101422.83
2022-12-03T22:16:36.362Z,101416.98
2022-12-03T22:19:04.729Z,101416.36
2022-12-03T22:21:32.717Z,101413.41
2022-12-03T22:24:00.660Z,101414.55
2022-12-03T22:26:28.632Z,101413.04
2022-12-03T22:28:56.639Z,101413.34
2022-12-03T22:31:24.537Z,101412.30
2022-12-03T22:33:52.609Z,101414.41
2022-12-03T22:36:21.790Z,101411.84
2022-12-03T22:38:51.023Z,101411.56
2022-12-03T22:41:19.578Z,101413.36
2022-12-03T22:43:48.383Z,101413.40
2022-12-03T22:46:17.274Z,101413.23
2022-12-03T22:48:47.108Z,101417.21
2022-12-03T22:51:19.371Z,101413.99
2022-12-03T22:53:48.591Z,101414.10
2022-12-03T22:56:17.316Z,101408.80
2022-12-03T22:58:45.214Z,101411.40
2022-12-03T23:01:26.605Z,101408.20
2022-12-03T23:03:55.573Z,101414.51
2022-12-03T23:06:24.491Z,101415.62
2022-12-03T23:08:54.683Z,101415.26
2022-12-03T23:11:22.771Z,101416.33
2022-12-03T23:13:50.681Z,101415.82
2022-12-03T23:16:23.606Z,101418.58
2022-12-03T23:18:52.895Z,101415.13
2022-12-03T23:21:29.824Z,101409.55
2022-12-03T23:24:00.638Z,101403.11
2022-12-03T23:26:29.008Z,101394.52
2022-12-03T23:28:57.023Z,101393.73
2022-12-03T23:31:29.646Z,101388.00
2022-12-03T23:33:58.752Z,101377.25
2022-12-03T23:36:29.800Z,101376.21
2022-12-03T23:38:57.733Z,101373.50
2022-12-03T23:41:26.389Z,101371.78
2022-12-03T23:43:55.776Z,101370.44
2022-12-03T23:46:26.343Z,101368.55
2022-12-03T23:48:54.773Z,101366.14
2022-12-03T23:51:24.652Z,101363.27
2022-12-03T23:53:54.387Z,101358.06
2022-12-03T23:56:30.550Z,101357.16
2022-12-03T23:58:59.305Z,101356.27
